Les Mechins, Canada
Current Conditions -  °F | °C
As of 9:00 PM on Tuesday 21 Oct 2014 (Local Time) from CYBC Reporting Station
Few Clouds Few Clouds  
Wind Chill: 38°   Ceiling: Unl
Heat Index: 41°   Visibility: 9mi
Dew Point: 36°   Wind: 5mph
Humidity: 81%   Direction: 350°N
Pressure: 30.3"   Gusts: NA
Location:  48.98°N, 66.98°W
Report Text: CYBC 220100Z AUTO 35004KT 9SM FEW095 05/02 A3030 RMK SLP263
Loading
Personal Weather Stations






























Interactive Weather Map
Tropical Storm Tracking
New forecast layout! Learn more

10-Day Weather Forecast

Advertisements
Track Severe Weather on mobile